Ningbo Lishe International Airport
ZSNB : now visible

Airfield :











YOU CAN JOIN US ON...

 
LOGIN :

Register | Disclaimer

   EN    FR    IT 

 









Legend :    VFR   Marginal VFR   IFR   Intensive IFR   Very Intensive IFR
Visi :
Ceiling :
>= 8 km
>= 3000ft
5 to 8 km
1000 to 3000 ft
1500m to 5 km
500 to 1000 ft
800 to 1500m
200 to 500 ft
< 800m
< 200 ft
Symbols :   Thunderstorms  Fog  Heavy snow  Heavy precipitations  Wind > 20 kt






- Airport Elevation : 13 ft
- IATA code : NGB


ZSNB - Ningbo Lishe International

CURRENT METAR :
  • 180500Z 35004MPS 310V030 9999 FEW033 24/12 Q1020 NOSIG

EXPIRED METARs :
  • 180400Z 34004MPS 310V020 9999 SCT033 22/12 Q1021 NOSIG
  • 180300Z 34005MPS 310V020 9999 SCT033 22/12 Q1021 NOSIG

TAF TAF ZSNB
Valid from the 18 at 06:00 until the 19 at 06:00 UTC


180229Z 1806/1906 34004G09MPS 4000 BR SCT030 TX23/1806Z TN14/1821Z



MET'MAP, your aeronautical weather chart ! - Copyright ORBIFLY December 2007 - Disclaimer

ORBIFLY MET'MAP TEAM :

Programming & Development : Alexandra Zaïnal
Concept & Development : Baudouin d'Aumeries
Co-Development & Prog : Marc-Olivier Méhu
Technical & hardware support : Manuel Goepfert

Contact : metmap@orbifly.com




SOURCES & CREDITS :

   NOAA       Earth
Advisory